sensor_id;sensor_type;location;lat;lon;timestamp;pressure;altitude;pressure_sealevel;temperature;humidity
44127;BME280;29786;50.798;7.302;2023-04-21T00:01:35;98960;;;7.15;100
44127;BME280;29786;50.798;7.302;2023-04-21T00:06:32;98960;;;7.06;100
44127;BME280;29786;50.798;7.302;2023-04-21T00:11:29;98960;;;7.1;100
44127;BME280;29786;50.798;7.302;2023-04-21T00:16:30;98940;;;6.94;100
44127;BME280;29786;50.798;7.302;2023-04-21T00:22:36;98950;;;6.8;100
44127;BME280;29786;50.798;7.302;2023-04-21T00:27:32;98930;;;6.77;100
44127;BME280;29786;50.798;7.302;2023-04-21T00:32:29;98930;;;6.81;100
44127;BME280;29786;50.798;7.302;2023-04-21T00:43:36;98930;;;6.84;100
44127;BME280;29786;50.798;7.302;2023-04-21T00:48:32;98930;;;6.67;100
44127;BME280;29786;50.798;7.302;2023-04-21T00:53:29;98920;;;6.71;100
44127;BME280;29786;50.798;7.302;2023-04-21T00:58:26;98920;;;6.83;100
44127;BME280;29786;50.798;7.302;2023-04-21T01:04:36;98910;;;6.92;100
44127;BME280;29786;50.798;7.302;2023-04-21T01:09:33;98910;;;6.79;100
44127;BME280;29786;50.798;7.302;2023-04-21T01:14:29;98920;;;6.81;100
44127;BME280;29786;50.798;7.302;2023-04-21T01:19:27;98920;;;6.96;100
44127;BME280;29786;50.798;7.302;2023-04-21T01:25:37;98930;;;6.92;100
44127;BME280;29786;50.798;7.302;2023-04-21T01:30:33;98940;;;7.04;100
44127;BME280;29786;50.798;7.302;2023-04-21T01:35:30;98940;;;7;100
44127;BME280;29786;50.798;7.302;2023-04-21T01:40:26;98930;;;6.94;100
44127;BME280;29786;50.798;7.302;2023-04-21T01:46:37;98950;;;6.77;100
44127;BME280;29786;50.798;7.302;2023-04-21T01:51:33;98940;;;6.83;100
44127;BME280;29786;50.798;7.302;2023-04-21T01:56:30;98950;;;7.14;100
44127;BME280;29786;50.798;7.302;2023-04-21T02:07:37;98940;;;7.21;100
44127;BME280;29786;50.798;7.302;2023-04-21T02:12:34;98940;;;7.07;100
44127;BME280;29786;50.798;7.302;2023-04-21T02:17:30;98930;;;7.07;100
44127;BME280;29786;50.798;7.302;2023-04-21T02:22:27;98930;;;7.13;100
44127;BME280;29786;50.798;7.302;2023-04-21T02:28:37;98940;;;6.81;100
44127;BME280;29786;50.798;7.302;2023-04-21T02:33:34;98940;;;6.82;100
44127;BME280;29786;50.798;7.302;2023-04-21T02:38:30;98940;;;6.62;100
44127;BME280;29786;50.798;7.302;2023-04-21T02:43:27;98930;;;6.37;100
44127;BME280;29786;50.798;7.302;2023-04-21T02:49:40;98940;;;6.5;100
44127;BME280;29786;50.798;7.302;2023-04-21T02:54:34;98940;;;6.29;100
44127;BME280;29786;50.798;7.302;2023-04-21T02:59:31;98940;;;6.08;100
44127;BME280;29786;50.798;7.302;2023-04-21T03:04:27;98940;;;6.18;100
44127;BME280;29786;50.798;7.302;2023-04-21T03:10:38;98930;;;6.12;100
44127;BME280;29786;50.798;7.302;2023-04-21T03:15:34;98950;;;6.11;100
44127;BME280;29786;50.798;7.302;2023-04-21T03:20:31;98950;;;6.23;100
44127;BME280;29786;50.798;7.302;2023-04-21T03:25:28;98940;;;6.29;100
44127;BME280;29786;50.798;7.302;2023-04-21T03:31:38;98950;;;6.14;100
44127;BME280;29786;50.798;7.302;2023-04-21T03:36:35;98940;;;5.97;100
44127;BME280;29786;50.798;7.302;2023-04-21T03:41:32;98920;;;5.89;100
44127;BME280;29786;50.798;7.302;2023-04-21T03:46:28;98940;;;6;100
44127;BME280;29786;50.798;7.302;2023-04-21T03:51:24;98930;;;6.04;100
44127;BME280;29786;50.798;7.302;2023-04-21T03:57:35;98950;;;5.92;100
44127;BME280;29786;50.798;7.302;2023-04-21T04:02:31;98920;;;5.81;100
44127;BME280;29786;50.798;7.302;2023-04-21T04:07:28;98930;;;6.05;100
44127;BME280;29786;50.798;7.302;2023-04-21T04:12:25;98940;;;6.01;100
44127;BME280;29786;50.798;7.302;2023-04-21T04:18:35;98940;;;5.98;100
44127;BME280;29786;50.798;7.302;2023-04-21T04:23:32;98930;;;5.78;100
44127;BME280;29786;50.798;7.302;2023-04-21T04:28:33;98940;;;5.87;100
44127;BME280;29786;50.798;7.302;2023-04-21T04:33:25;98940;;;6.03;100
44127;BME280;29786;50.798;7.302;2023-04-21T04:39:36;98940;;;6.11;100
44127;BME280;29786;50.798;7.302;2023-04-21T04:44:32;98940;;;6.12;100
44127;BME280;29786;50.798;7.302;2023-04-21T04:49:29;98940;;;6.35;100
44127;BME280;29786;50.798;7.302;2023-04-21T04:54:25;98950;;;6.46;100
44127;BME280;29786;50.798;7.302;2023-04-21T05:00:36;98950;;;6.63;100
44127;BME280;29786;50.798;7.302;2023-04-21T05:05:33;98950;;;6.53;100
44127;BME280;29786;50.798;7.302;2023-04-21T05:10:29;98950;;;6.55;100
44127;BME280;29786;50.798;7.302;2023-04-21T05:15:25;98950;;;6.44;100
44127;BME280;29786;50.798;7.302;2023-04-21T05:21:36;98960;;;6.34;100
44127;BME280;29786;50.798;7.302;2023-04-21T05:26:33;98950;;;6.27;100
44127;BME280;29786;50.798;7.302;2023-04-21T05:31:29;98950;;;6.29;100
44127;BME280;29786;50.798;7.302;2023-04-21T05:36:26;98950;;;6.2;100
44127;BME280;29786;50.798;7.302;2023-04-21T05:42:36;98950;;;6.29;100
44127;BME280;29786;50.798;7.302;2023-04-21T05:47:33;98960;;;6.47;100
44127;BME280;29786;50.798;7.302;2023-04-21T05:52:29;98960;;;6.51;100
44127;BME280;29786;50.798;7.302;2023-04-21T05:57:26;98960;;;6.59;100
44127;BME280;29786;50.798;7.302;2023-04-21T06:03:36;98970;;;6.82;100
44127;BME280;29786;50.798;7.302;2023-04-21T06:08:33;98960;;;7.11;100
44127;BME280;29786;50.798;7.302;2023-04-21T06:13:29;98960;;;7.39;100
44127;BME280;29786;50.798;7.302;2023-04-21T06:18:26;98950;;;7.7;100
44127;BME280;29786;50.798;7.302;2023-04-21T06:24:37;98950;;;7.41;100
44127;BME280;29786;50.798;7.302;2023-04-21T06:29:33;98950;;;7.37;100
44127;BME280;29786;50.798;7.302;2023-04-21T06:34:30;98950;;;7.34;100
44127;BME280;29786;50.798;7.302;2023-04-21T06:45:37;98960;;;8.26;100
44127;BME280;29786;50.798;7.302;2023-04-21T06:50:34;98950;;;8.35;100
44127;BME280;29786;50.798;7.302;2023-04-21T06:55:30;98940;;;8.41;100
44127;BME280;29786;50.798;7.302;2023-04-21T07:00:27;98940;;;8.35;100
44127;BME280;29786;50.798;7.302;2023-04-21T07:06:37;98940;;;8.53;100
44127;BME280;29786;50.798;7.302;2023-04-21T07:11:34;98950;;;9.08;100
44127;BME280;29786;50.798;7.302;2023-04-21T07:16:31;98940;;;9.49;100
44127;BME280;29786;50.798;7.302;2023-04-21T07:21:27;98940;;;9.41;100
44127;BME280;29786;50.798;7.302;2023-04-21T07:27:38;98940;;;9.96;100
44127;BME280;29786;50.798;7.302;2023-04-21T07:32:34;98940;;;9.68;100
44127;BME280;29786;50.798;7.302;2023-04-21T07:37:31;98950;;;9.43;100
44127;BME280;29786;50.798;7.302;2023-04-21T07:42:27;98950;;;10.29;100
44127;BME280;29786;50.798;7.302;2023-04-21T07:48:38;98950;;;10.7;100
44127;BME280;29786;50.798;7.302;2023-04-21T07:53:34;98950;;;10.48;100
44127;BME280;29786;50.798;7.302;2023-04-21T07:58:31;98950;;;10.59;100
44127;BME280;29786;50.798;7.302;2023-04-21T08:03:27;98950;;;10.56;100
44127;BME280;29786;50.798;7.302;2023-04-21T08:09:38;98950;;;10.69;100
44127;BME280;29786;50.798;7.302;2023-04-21T08:14:35;98940;;;10.81;100
44127;BME280;29786;50.798;7.302;2023-04-21T08:19:31;98950;;;10.97;100
44127;BME280;29786;50.798;7.302;2023-04-21T08:24:28;98950;;;11.7;100
44127;BME280;29786;50.798;7.302;2023-04-21T08:29:33;98960;;;11.93;100
44127;BME280;29786;50.798;7.302;2023-04-21T08:34:29;98950;;;11.73;100
44127;BME280;29786;50.798;7.302;2023-04-21T08:39:26;98950;;;11.96;100
44127;BME280;29786;50.798;7.302;2023-04-21T08:45:36;98950;;;13.72;100
44127;BME280;29786;50.798;7.302;2023-04-21T08:50:33;98940;;;13.5;100
44127;BME280;29786;50.798;7.302;2023-04-21T08:55:29;98950;;;13.25;100
44127;BME280;29786;50.798;7.302;2023-04-21T09:00:26;98950;;;13.06;100
44127;BME280;29786;50.798;7.302;2023-04-21T09:06:40;98940;;;13.04;100
44127;BME280;29786;50.798;7.302;2023-04-21T09:11:33;98940;;;12.64;100
44127;BME280;29786;50.798;7.302;2023-04-21T09:16:30;98940;;;13;100
44127;BME280;29786;50.798;7.302;2023-04-21T09:21:27;98930;;;13.17;100
44127;BME280;29786;50.798;7.302;2023-04-21T09:27:37;98930;;;12.86;100
44127;BME280;29786;50.798;7.302;2023-04-21T09:32:35;98930;;;13.54;100
44127;BME280;29786;50.798;7.302;2023-04-21T09:37:31;98920;;;13.06;100
44127;BME280;29786;50.798;7.302;2023-04-21T09:42:27;98920;;;13.68;100
44127;BME280;29786;50.798;7.302;2023-04-21T09:48:39;98910;;;14.71;100
44127;BME280;29786;50.798;7.302;2023-04-21T09:53:34;98910;;;15.03;100
44127;BME280;29786;50.798;7.302;2023-04-21T09:58:31;98900;;;15.33;98.18
44127;BME280;29786;50.798;7.302;2023-04-21T10:03:27;98890;;;15.6;98.09
44127;BME280;29786;50.798;7.302;2023-04-21T10:09:39;98890;;;15.8;89.81
44127;BME280;29786;50.798;7.302;2023-04-21T10:14:34;98880;;;16.31;84.33
44127;BME280;29786;50.798;7.302;2023-04-21T10:19:30;98880;;;16.54;88.04
44127;BME280;29786;50.798;7.302;2023-04-21T10:24:27;98870;;;16.95;82.85
44127;BME280;29786;50.798;7.302;2023-04-21T10:30:37;98870;;;16.84;79.32
44127;BME280;29786;50.798;7.302;2023-04-21T10:36:06;98860;;;16.37;83.44
44127;BME280;29786;50.798;7.302;2023-04-21T10:40:32;98860;;;16.62;80.51
44127;BME280;29786;50.798;7.302;2023-04-21T10:45:27;98850;;;16.53;81.53
44127;BME280;29786;50.798;7.302;2023-04-21T10:52:10;98840;;;16.29;78.13
44127;BME280;29786;50.798;7.302;2023-04-21T10:56:34;98840;;;16.82;79.01
44127;BME280;29786;50.798;7.302;2023-04-21T11:01:31;98830;;;16.78;75.47
44127;BME280;29786;50.798;7.302;2023-04-21T11:06:27;98820;;;16.53;75.34
44127;BME280;29786;50.798;7.302;2023-04-21T11:12:39;98810;;;17.43;70.39
44127;BME280;29786;50.798;7.302;2023-04-21T11:17:35;98810;;;17.87;65.72
44127;BME280;29786;50.798;7.302;2023-04-21T11:22:31;98800;;;17.78;65.05
44127;BME280;29786;50.798;7.302;2023-04-21T11:27:28;98780;;;18.7;60.46
44127;BME280;29786;50.798;7.302;2023-04-21T11:33:38;98780;;;19.99;55.54
44127;BME280;29786;50.798;7.302;2023-04-21T11:38:36;98770;;;19.85;56.04
44127;BME280;29786;50.798;7.302;2023-04-21T11:43:31;98740;;;20.42;57.2
44127;BME280;29786;50.798;7.302;2023-04-21T11:48:28;98750;;;20.1;52.98
44127;BME280;29786;50.798;7.302;2023-04-21T11:53:24;98740;;;20.88;52.05
44127;BME280;29786;50.798;7.302;2023-04-21T11:59:35;98730;;;22.06;50.4
44127;BME280;29786;50.798;7.302;2023-04-21T12:04:32;98710;;;22.45;46.87
44127;BME280;29786;50.798;7.302;2023-04-21T12:09:29;98720;;;23.2;45.19
44127;BME280;29786;50.798;7.302;2023-04-21T12:14:25;98720;;;23.27;44.26
44127;BME280;29786;50.798;7.302;2023-04-21T12:20:35;98720;;;23.54;45.24
44127;BME280;29786;50.798;7.302;2023-04-21T12:25:32;98700;;;24.26;46.2
44127;BME280;29786;50.798;7.302;2023-04-21T12:30:29;98710;;;23.59;47.12
44127;BME280;29786;50.798;7.302;2023-04-21T12:35:25;98710;;;24.85;42.54
44127;BME280;29786;50.798;7.302;2023-04-21T12:41:36;98720;;;23.86;43.99
44127;BME280;29786;50.798;7.302;2023-04-21T12:51:29;98690;;;26.22;40.26
44127;BME280;29786;50.798;7.302;2023-04-21T12:56:25;98690;;;27.39;36.54
44127;BME280;29786;50.798;7.302;2023-04-21T13:02:36;98680;;;26.42;38.96
44127;BME280;29786;50.798;7.302;2023-04-21T13:07:33;98670;;;24.76;39.77
44127;BME280;29786;50.798;7.302;2023-04-21T13:12:29;98670;;;26.15;38.41
44127;BME280;29786;50.798;7.302;2023-04-21T13:17:26;98660;;;27.13;36.08
44127;BME280;29786;50.798;7.302;2023-04-21T13:23:36;98670;;;27.43;35.65
44127;BME280;29786;50.798;7.302;2023-04-21T13:28:33;98660;;;27.23;36.06
44127;BME280;29786;50.798;7.302;2023-04-21T13:33:29;98650;;;27.1;35.55
44127;BME280;29786;50.798;7.302;2023-04-21T13:38:26;98640;;;28.32;33.52
44127;BME280;29786;50.798;7.302;2023-04-21T13:44:36;98630;;;27.88;33.61
44127;BME280;29786;50.798;7.302;2023-04-21T13:49:33;98630;;;28.53;32.69
44127;BME280;29786;50.798;7.302;2023-04-21T13:54:29;98620;;;29.09;31.76
44127;BME280;29786;50.798;7.302;2023-04-21T13:59:26;98620;;;28.42;32.91
44127;BME280;29786;50.798;7.302;2023-04-21T14:05:37;98620;;;29.16;32.33
44127;BME280;29786;50.798;7.302;2023-04-21T14:10:33;98600;;;29.85;31.74
44127;BME280;29786;50.798;7.302;2023-04-21T14:15:30;98600;;;27.92;33.61
44127;BME280;29786;50.798;7.302;2023-04-21T14:20:26;98580;;;28.93;32.32
44127;BME280;29786;50.798;7.302;2023-04-21T14:26:37;98580;;;30.03;30.26
44127;BME280;29786;50.798;7.302;2023-04-21T14:31:33;98570;;;30.5;30.19
44127;BME280;29786;50.798;7.302;2023-04-21T14:36:30;98560;;;30.63;30.1
44127;BME280;29786;50.798;7.302;2023-04-21T14:41:26;98560;;;30.6;29.86
44127;BME280;29786;50.798;7.302;2023-04-21T14:47:37;98550;;;29.52;31.12
44127;BME280;29786;50.798;7.302;2023-04-21T14:52:34;98530;;;30.11;29.08
44127;BME280;29786;50.798;7.302;2023-04-21T14:57:30;98540;;;30.32;29.06
44127;BME280;29786;50.798;7.302;2023-04-21T15:02:27;98530;;;30.78;28.49
44127;BME280;29786;50.798;7.302;2023-04-21T15:08:37;98530;;;30.72;28.61
44127;BME280;29786;50.798;7.302;2023-04-21T15:13:34;98530;;;31.86;27.1
44127;BME280;29786;50.798;7.302;2023-04-21T15:18:31;98520;;;31.08;27.78
44127;BME280;29786;50.798;7.302;2023-04-21T15:23:27;98520;;;30;28.83
44127;BME280;29786;50.798;7.302;2023-04-21T15:29:38;98510;;;29.37;30.97
44127;BME280;29786;50.798;7.302;2023-04-21T15:34:34;98510;;;31.83;28.23
44127;BME280;29786;50.798;7.302;2023-04-21T15:39:31;98500;;;31.06;28.13
44127;BME280;29786;50.798;7.302;2023-04-21T15:44:27;98500;;;24.72;36.76
44127;BME280;29786;50.798;7.302;2023-04-21T15:50:38;98490;;;28.59;32.27
44127;BME280;29786;50.798;7.302;2023-04-21T15:55:35;98480;;;31.39;28.25
44127;BME280;29786;50.798;7.302;2023-04-21T16:00:31;98480;;;27.61;32.61
44127;BME280;29786;50.798;7.302;2023-04-21T16:05:28;98460;;;26.77;34.38
44127;BME280;29786;50.798;7.302;2023-04-21T16:11:38;98460;;;29.78;30.02
44127;BME280;29786;50.798;7.302;2023-04-21T16:16:35;98460;;;28.4;31.93
44127;BME280;29786;50.798;7.302;2023-04-21T16:21:31;98440;;;27.95;31.77
44127;BME280;29786;50.798;7.302;2023-04-21T16:26:28;98440;;;31.34;27.72
44127;BME280;29786;50.798;7.302;2023-04-21T16:32:43;98440;;;32.12;26.57
44127;BME280;29786;50.798;7.302;2023-04-21T16:37:35;98440;;;32.21;27.35
44127;BME280;29786;50.798;7.302;2023-04-21T16:42:32;98420;;;32.53;26.19
44127;BME280;29786;50.798;7.302;2023-04-21T16:47:29;98430;;;31.27;27.32
44127;BME280;29786;50.798;7.302;2023-04-21T16:52:25;98430;;;30.78;28.37
44127;BME280;29786;50.798;7.302;2023-04-21T16:58:35;98420;;;30.96;28.05
44127;BME280;29786;50.798;7.302;2023-04-21T17:03:32;98410;;;31.59;27.33
44127;BME280;29786;50.798;7.302;2023-04-21T17:08:29;98420;;;29.95;28.89
44127;BME280;29786;50.798;7.302;2023-04-21T17:13:25;98420;;;30.74;28.85
44127;BME280;29786;50.798;7.302;2023-04-21T17:19:36;98410;;;30.59;28.34
44127;BME280;29786;50.798;7.302;2023-04-21T17:29:29;98420;;;24.92;35.96
44127;BME280;29786;50.798;7.302;2023-04-21T17:34:26;98430;;;20.97;42.77
44127;BME280;29786;50.798;7.302;2023-04-21T17:40:36;98440;;;18.71;48.27
44127;BME280;29786;50.798;7.302;2023-04-21T17:45:33;98440;;;17.98;50.76
44127;BME280;29786;50.798;7.302;2023-04-21T17:50:29;98440;;;17.84;52.01
44127;BME280;29786;50.798;7.302;2023-04-21T18:01:36;98450;;;16.99;56.54
44127;BME280;29786;50.798;7.302;2023-04-21T18:06:33;98440;;;16.75;59.56
44127;BME280;29786;50.798;7.302;2023-04-21T18:11:29;98440;;;16.86;59.71
44127;BME280;29786;50.798;7.302;2023-04-21T18:16:26;98440;;;16.58;60.93
44127;BME280;29786;50.798;7.302;2023-04-21T18:22:36;98440;;;16.35;63.3
44127;BME280;29786;50.798;7.302;2023-04-21T18:27:33;98450;;;16.29;64.82
44127;BME280;29786;50.798;7.302;2023-04-21T18:32:29;98450;;;16.29;64.79
44127;BME280;29786;50.798;7.302;2023-04-21T18:37:26;98470;;;16.21;64.88
44127;BME280;29786;50.798;7.302;2023-04-21T18:43:37;98480;;;16.03;67.53
44127;BME280;29786;50.798;7.302;2023-04-21T18:48:34;98480;;;16.03;70.53
44127;BME280;29786;50.798;7.302;2023-04-21T18:53:30;98540;;;15.86;71.48
44127;BME280;29786;50.798;7.302;2023-04-21T18:58:26;98570;;;13.09;100
44127;BME280;29786;50.798;7.302;2023-04-21T19:04:37;98560;;;12.78;100
44127;BME280;29786;50.798;7.302;2023-04-21T19:09:33;98560;;;12.72;100
44127;BME280;29786;50.798;7.302;2023-04-21T19:14:30;98570;;;12.73;100
44127;BME280;29786;50.798;7.302;2023-04-21T19:19:27;98580;;;12.73;100
44127;BME280;29786;50.798;7.302;2023-04-21T19:25:37;98560;;;12.86;100
44127;BME280;29786;50.798;7.302;2023-04-21T19:30:34;98560;;;13.09;100
44127;BME280;29786;50.798;7.302;2023-04-21T19:35:30;98550;;;13.1;100
44127;BME280;29786;50.798;7.302;2023-04-21T19:40:27;98540;;;12.98;100
44127;BME280;29786;50.798;7.302;2023-04-21T19:46:38;98530;;;12.7;100
44127;BME280;29786;50.798;7.302;2023-04-21T19:51:34;98510;;;12.72;100
44127;BME280;29786;50.798;7.302;2023-04-21T19:56:30;98510;;;12.29;100
44127;BME280;29786;50.798;7.302;2023-04-21T20:01:27;98500;;;12.12;100
44127;BME280;29786;50.798;7.302;2023-04-21T20:07:38;98490;;;11.9;100
44127;BME280;29786;50.798;7.302;2023-04-21T20:12:34;98480;;;11.77;100
44127;BME280;29786;50.798;7.302;2023-04-21T20:17:31;98480;;;11.71;100
44127;BME280;29786;50.798;7.302;2023-04-21T20:22:27;98480;;;11.69;100
44127;BME280;29786;50.798;7.302;2023-04-21T20:28:38;98500;;;11.56;100
44127;BME280;29786;50.798;7.302;2023-04-21T20:33:35;98500;;;11.39;100
44127;BME280;29786;50.798;7.302;2023-04-21T20:38:32;98500;;;11.25;100
44127;BME280;29786;50.798;7.302;2023-04-21T20:43:28;98490;;;11.15;100
44127;BME280;29786;50.798;7.302;2023-04-21T20:49:38;98500;;;11.18;100
44127;BME280;29786;50.798;7.302;2023-04-21T20:53:34;98490;;;11.19;100
44127;BME280;29786;50.798;7.302;2023-04-21T21:04:36;98490;;;11.27;100
44127;BME280;29786;50.798;7.302;2023-04-21T21:09:33;98490;;;11.14;100
44127;BME280;29786;50.798;7.302;2023-04-21T21:14:30;98500;;;11.09;100
44127;BME280;29786;50.798;7.302;2023-04-21T21:19:26;98500;;;10.89;100
44127;BME280;29786;50.798;7.302;2023-04-21T21:25:36;98500;;;10.86;100
44127;BME280;29786;50.798;7.302;2023-04-21T21:30:33;98500;;;10.82;100
44127;BME280;29786;50.798;7.302;2023-04-21T21:35:30;98490;;;10.67;100
44127;BME280;29786;50.798;7.302;2023-04-21T21:40:26;98490;;;10.73;100
44127;BME280;29786;50.798;7.302;2023-04-21T21:46:37;98480;;;10.71;100
44127;BME280;29786;50.798;7.302;2023-04-21T21:51:33;98480;;;10.41;100
44127;BME280;29786;50.798;7.302;2023-04-21T21:56:30;98480;;;10.3;100
44127;BME280;29786;50.798;7.302;2023-04-21T22:01:26;98490;;;10.39;100
44127;BME280;29786;50.798;7.302;2023-04-21T22:07:37;98480;;;10.4;100
44127;BME280;29786;50.798;7.302;2023-04-21T22:12:33;98470;;;10.4;100
44127;BME280;29786;50.798;7.302;2023-04-21T22:17:30;98470;;;10.37;100
44127;BME280;29786;50.798;7.302;2023-04-21T22:28:37;98470;;;10.37;100
44127;BME280;29786;50.798;7.302;2023-04-21T22:33:34;98470;;;10.43;100
44127;BME280;29786;50.798;7.302;2023-04-21T22:38:30;98480;;;10.49;100
44127;BME280;29786;50.798;7.302;2023-04-21T22:43:27;98490;;;10.54;100
44127;BME280;29786;50.798;7.302;2023-04-21T22:49:37;98490;;;10.14;100
44127;BME280;29786;50.798;7.302;2023-04-21T22:54:34;98480;;;10.4;100
44127;BME280;29786;50.798;7.302;2023-04-21T22:59:30;98490;;;10.42;100
44127;BME280;29786;50.798;7.302;2023-04-21T23:04:27;98480;;;10.33;100
44127;BME280;29786;50.798;7.302;2023-04-21T23:10:38;98480;;;10.41;100
44127;BME280;29786;50.798;7.302;2023-04-21T23:15:34;98490;;;10.59;100
44127;BME280;29786;50.798;7.302;2023-04-21T23:20:31;98480;;;10.7;100
44127;BME280;29786;50.798;7.302;2023-04-21T23:25:27;98480;;;10.64;100
44127;BME280;29786;50.798;7.302;2023-04-21T23:31:38;98470;;;10.73;100
44127;BME280;29786;50.798;7.302;2023-04-21T23:36:35;98480;;;10.58;100
44127;BME280;29786;50.798;7.302;2023-04-21T23:41:31;98480;;;10.58;100
44127;BME280;29786;50.798;7.302;2023-04-21T23:46:28;98480;;;10.62;100
44127;BME280;29786;50.798;7.302;2023-04-21T23:52:38;98490;;;10.67;100
44127;BME280;29786;50.798;7.302;2023-04-21T23:57:35;98490;;;10.55;100
